Time;durP1;ratioP1;P1;durP2;ratioP2;P2;SDS_P1;SDS_P2;PMS_P1;PMS_P2;Temp;Humidity;BMP_temperature;BMP_pressure;BME280_temperature;BME280_humidity;BME280_pressure;Samples;Min_cycle;Max_cycle;Signal;HPM_P1;HPM_P2
2023/08/12 00:01:24;;;;;;;;;;;24.50;82.50;;;;;;4121595;28;20019;-54
2023/08/12 00:04:05;;;;;;;;;;;24.50;82.50;;;;;;4133956;28;19936;-55
2023/08/12 00:06:46;;;;;;;;;;;24.50;82.50;;;;;;4138085;28;20056;-53
2023/08/12 00:09:27;;;;;;;;;;;24.50;82.60;;;;;;4129670;28;19933;-55
2023/08/12 00:12:08;;;;;;;;;;;24.50;82.60;;;;;;4143558;28;19936;-55
2023/08/12 00:14:49;;;;;;;;;;;24.50;82.70;;;;;;4153054;28;19952;-54
2023/08/12 00:17:31;;;;;;;;;;;24.50;83.50;;;;;;4152447;28;19948;-56
2023/08/12 00:20:12;;;;;;;;;;;24.50;82.70;;;;;;4141380;28;19936;-54
2023/08/12 00:22:53;;;;;;;;;;;24.40;82.60;;;;;;4153077;28;19936;-55
2023/08/12 00:25:34;;;;;;;;;;;24.50;82.70;;;;;;4155225;28;19936;-54
2023/08/12 00:28:15;;;;;;;;;;;24.40;82.70;;;;;;4153848;28;20396;-56
2023/08/12 00:30:56;;;;;;;;;;;24.40;82.70;;;;;;4152325;28;19964;-54
2023/08/12 00:33:38;;;;;;;;;;;24.40;82.80;;;;;;4140036;28;19951;-54
2023/08/12 00:36:18;;;;;;;;;;;24.40;82.80;;;;;;4154283;28;19936;-54
2023/08/12 00:39:00;;;;;;;;;;;24.40;82.80;;;;;;4153641;28;19982;-59
2023/08/12 00:41:41;;;;;;;;;;;24.40;82.80;;;;;;4136683;28;19936;-59
2023/08/12 00:44:22;;;;;;;;;;;24.40;82.80;;;;;;4127186;28;19936;-59
2023/08/12 00:47:03;;;;;;;;;;;24.40;82.70;;;;;;4157764;28;20299;-59
2023/08/12 00:49:45;;;;;;;;;;;24.40;83.70;;;;;;4158016;28;19967;-60
2023/08/12 00:52:26;;;;;;;;;;;24.40;82.70;;;;;;4168190;28;19978;-60
2023/08/12 00:55:07;;;;;;;;;;;24.40;82.70;;;;;;4155818;28;19947;-60
2023/08/12 00:57:48;;;;;;;;;;;24.40;82.70;;;;;;4139676;28;20384;-60
2023/08/12 01:00:29;;;;;;;;;;;24.30;82.70;;;;;;4128113;28;20076;-59
2023/08/12 01:03:11;;;;;;;;;;;24.30;82.70;;;;;;4140736;28;19932;-60
2023/08/12 01:05:53;;;;;;;;;;;24.30;82.70;;;;;;4128425;28;20284;-60
2023/08/12 01:08:36;;;;;;;;;;;24.30;82.70;;;;;;4140555;28;19984;-60
2023/08/12 01:11:21;;;;;;;;;;;24.30;82.70;;;;;;4146661;28;19931;-59
2023/08/12 01:14:05;;;;;;;;;;;24.30;83.60;;;;;;4152450;28;20296;-60
2023/08/12 01:16:48;;;;;;;;;;;24.30;82.80;;;;;;4135256;28;19998;-60
2023/08/12 01:19:31;;;;;;;;;;;24.30;82.80;;;;;;4173655;28;19935;-60
2023/08/12 01:22:13;;;;;;;;;;;24.30;82.80;;;;;;4172978;28;20015;-59
2023/08/12 01:24:56;;;;;;;;;;;24.30;82.80;;;;;;4160625;28;20075;-59
2023/08/12 01:27:37;;;;;;;;;;;24.30;82.80;;;;;;4157504;28;19947;-59
2023/08/12 01:30:19;;;;;;;;;;;24.30;82.80;;;;;;4172277;28;19978;-59
2023/08/12 01:33:05;;;;;;;;;;;24.30;82.80;;;;;;4156418;28;19974;-58
2023/08/12 01:35:48;;;;;;;;;;;24.30;82.80;;;;;;4155420;28;19935;-59
2023/08/12 01:38:29;;;;;;;;;;;24.20;82.80;;;;;;4155806;28;19971;-58
2023/08/12 01:41:12;;;;;;;;;;;24.30;82.90;;;;;;4156424;28;19967;-58
2023/08/12 01:43:53;;;;;;;;;;;24.30;82.90;;;;;;4124916;28;19932;-59
2023/08/12 01:46:34;;;;;;;;;;;24.20;82.80;;;;;;4140264;28;20028;-59
2023/08/12 01:49:15;;;;;;;;;;;24.20;82.90;;;;;;4139655;28;19973;-51
2023/08/12 01:51:56;;;;;;;;;;;24.20;82.80;;;;;;4138752;28;19982;-53
2023/08/12 01:54:37;;;;;;;;;;;24.20;82.90;;;;;;4127315;28;19932;-54
2023/08/12 01:57:21;;;;;;;;;;;24.20;82.90;;;;;;4139424;28;19937;-55
2023/08/12 02:00:02;;;;;;;;;;;24.20;82.90;;;;;;4127827;28;22101;-54
2023/08/12 02:02:56;;;;;;;;;;;24.20;83.00;;;;;;4138687;28;19938;-54
2023/08/12 02:05:38;;;;;;;;;;;24.10;82.90;;;;;;4153104;28;19932;-54
2023/08/12 02:08:19;;;;;;;;;;;24.20;83.00;;;;;;4155080;28;20522;-54
2023/08/12 02:11:00;;;;;;;;;;;24.20;83.00;;;;;;4155185;28;19978;-53
2023/08/12 02:13:42;;;;;;;;;;;24.20;83.00;;;;;;4127619;28;19971;-54
2023/08/12 02:16:23;;;;;;;;;;;24.10;83.00;;;;;;4127493;28;19975;-51
2023/08/12 02:19:04;;;;;;;;;;;24.10;83.80;;;;;;4139080;28;19932;-52
2023/08/12 02:21:44;;;;;;;;;;;24.10;83.00;;;;;;4153350;28;19936;-54
2023/08/12 02:24:25;;;;;;;;;;;24.10;83.00;;;;;;4155869;28;19954;-55
2023/08/12 02:27:05;;;;;;;;;;;24.10;83.00;;;;;;4172577;28;20437;-53
2023/08/12 02:29:47;;;;;;;;;;;24.10;83.00;;;;;;4141878;28;19932;-54
2023/08/12 02:32:28;;;;;;;;;;;24.10;83.10;;;;;;4172246;28;19932;-55
2023/08/12 02:35:09;;;;;;;;;;;24.10;83.10;;;;;;4167225;28;19936;-55
2023/08/12 02:37:50;;;;;;;;;;;24.10;84.00;;;;;;4155573;28;19936;-55
2023/08/12 02:40:31;;;;;;;;;;;24.10;83.10;;;;;;4139440;28;20442;-55
2023/08/12 02:43:12;;;;;;;;;;;24.00;83.10;;;;;;4153466;28;19940;-57
2023/08/12 02:45:54;;;;;;;;;;;24.00;83.10;;;;;;4152682;28;20328;-56
2023/08/12 02:48:36;;;;;;;;;;;24.10;83.20;;;;;;4150760;28;19936;-57
2023/08/12 02:51:16;;;;;;;;;;;24.00;83.10;;;;;;4137846;28;19937;-56
2023/08/12 02:53:57;;;;;;;;;;;24.00;84.00;;;;;;4125822;28;19936;-57
2023/08/12 02:56:38;;;;;;;;;;;24.00;83.20;;;;;;4138378;28;19975;-54
2023/08/12 02:59:19;;;;;;;;;;;24.00;83.20;;;;;;4132855;28;19932;-55
2023/08/12 03:02:01;;;;;;;;;;;24.00;83.30;;;;;;4154863;28;19940;-51
2023/08/12 03:04:42;;;;;;;;;;;24.00;83.30;;;;;;4168395;28;20018;-53
2023/08/12 03:07:23;;;;;;;;;;;23.90;83.30;;;;;;4159571;28;20395;-55
2023/08/12 03:10:04;;;;;;;;;;;23.90;83.30;;;;;;4138596;28;20019;-54
2023/08/12 03:12:45;;;;;;;;;;;24.00;83.40;;;;;;4138829;28;19933;-54
2023/08/12 03:15:26;;;;;;;;;;;23.90;84.20;;;;;;4127264;28;20060;-54
2023/08/12 03:18:08;;;;;;;;;;;23.90;83.40;;;;;;4139071;28;19933;-54
2023/08/12 03:20:50;;;;;;;;;;;23.90;83.40;;;;;;4142621;28;20039;-55
2023/08/12 03:23:33;;;;;;;;;;;23.90;83.50;;;;;;4127044;28;19933;-55
2023/08/12 03:26:15;;;;;;;;;;;23.90;83.50;;;;;;4124869;28;19936;-55
2023/08/12 03:28:56;;;;;;;;;;;23.90;83.50;;;;;;4117404;28;19937;-54
2023/08/12 03:31:37;;;;;;;;;;;23.90;83.50;;;;;;4137353;28;19959;-54
2023/08/12 03:34:20;;;;;;;;;;;23.90;83.60;;;;;;4149807;28;19935;-53
2023/08/12 03:37:00;;;;;;;;;;;23.90;83.70;;;;;;4171570;28;19940;-54
2023/08/12 03:39:41;;;;;;;;;;;23.90;83.70;;;;;;4134611;28;19936;-56
2023/08/12 03:42:22;;;;;;;;;;;23.90;83.70;;;;;;4170121;28;19931;-56
2023/08/12 03:45:04;;;;;;;;;;;23.90;83.70;;;;;;4170194;28;19962;-55
2023/08/12 03:47:44;;;;;;;;;;;23.90;83.80;;;;;;4169730;28;19988;-56
2023/08/12 03:50:27;;;;;;;;;;;23.80;83.70;;;;;;4153770;28;20375;-56
2023/08/12 03:53:08;;;;;;;;;;;23.90;83.80;;;;;;4128739;28;19981;-55
2023/08/12 03:55:50;;;;;;;;;;;23.80;83.80;;;;;;4141305;28;19932;-55
2023/08/12 03:58:32;;;;;;;;;;;23.80;83.80;;;;;;4154465;28;19932;-55
2023/08/12 04:01:13;;;;;;;;;;;23.80;83.90;;;;;;4131184;28;19948;-54
2023/08/12 04:03:54;;;;;;;;;;;23.80;83.90;;;;;;4124652;28;20007;-55
2023/08/12 04:06:37;;;;;;;;;;;23.80;83.90;;;;;;4149405;28;19936;-54
2023/08/12 04:09:19;;;;;;;;;;;23.80;84.00;;;;;;4152759;28;19936;-51
2023/08/12 04:11:59;;;;;;;;;;;23.80;84.00;;;;;;4153929;28;19932;-54
2023/08/12 04:14:40;;;;;;;;;;;23.80;84.90;;;;;;4149699;28;19932;-54
2023/08/12 04:17:22;;;;;;;;;;;23.80;84.10;;;;;;4130812;28;19932;-57
2023/08/12 04:20:05;;;;;;;;;;;23.80;84.10;;;;;;4141355;28;20395;-51
2023/08/12 04:22:49;;;;;;;;;;;23.70;84.10;;;;;;4159647;28;19935;-53
2023/08/12 04:25:30;;;;;;;;;;;23.80;84.30;;;;;;4152887;28;19940;-54
2023/08/12 04:28:12;;;;;;;;;;;23.80;84.30;;;;;;4141601;28;19991;-51
2023/08/12 04:30:53;;;;;;;;;;;23.80;84.40;;;;;;4147070;28;19932;-52
2023/08/12 04:33:36;;;;;;;;;;;23.70;84.40;;;;;;4125082;28;19937;-52
2023/08/12 04:36:17;;;;;;;;;;;23.80;84.50;;;;;;4137279;28;20289;-49
2023/08/12 04:38:59;;;;;;;;;;;23.70;84.50;;;;;;4139554;28;20458;-51
2023/08/12 04:41:41;;;;;;;;;;;23.70;84.50;;;;;;4164205;28;19988;-58
2023/08/12 04:44:23;;;;;;;;;;;23.80;84.50;;;;;;4151727;28;19975;-57
2023/08/12 04:47:04;;;;;;;;;;;23.80;84.70;;;;;;4141851;28;19931;-57
2023/08/12 04:49:46;;;;;;;;;;;23.80;85.00;;;;;;4145093;28;20399;-57
2023/08/12 04:52:27;;;;;;;;;;;23.80;86.00;;;;;;4150265;28;19936;-58
2023/08/12 04:55:11;;;;;;;;;;;23.80;85.00;;;;;;4164118;28;20504;-58
2023/08/12 04:57:52;;;;;;;;;;;23.80;85.00;;;;;;4152901;28;20006;-58
2023/08/12 05:00:33;;;;;;;;;;;23.80;84.90;;;;;;4141255;28;20303;-57
2023/08/12 05:03:14;;;;;;;;;;;23.80;85.00;;;;;;4149415;28;19932;-57
2023/08/12 05:05:55;;;;;;;;;;;23.80;84.90;;;;;;4160607;28;20062;-57
2023/08/12 05:08:39;;;;;;;;;;;23.70;84.80;;;;;;4136210;28;19933;-58
2023/08/12 05:11:21;;;;;;;;;;;23.70;84.80;;;;;;4077024;28;1799364;-58
2023/08/12 05:14:02;;;;;;;;;;;23.70;84.80;;;;;;4154246;28;19932;-57
2023/08/12 05:16:43;;;;;;;;;;;23.70;84.80;;;;;;4152889;28;19932;-58
2023/08/12 05:19:24;;;;;;;;;;;23.70;84.90;;;;;;4153796;28;19936;-57
2023/08/12 05:22:05;;;;;;;;;;;23.70;84.90;;;;;;4141703;28;20058;-59
2023/08/12 05:24:45;;;;;;;;;;;23.70;85.00;;;;;;4139992;28;19975;-57
2023/08/12 05:27:28;;;;;;;;;;;23.70;85.00;;;;;;4170721;28;19935;-58
2023/08/12 05:30:09;;;;;;;;;;;23.70;85.00;;;;;;4170372;28;19984;-58
2023/08/12 05:32:50;;;;;;;;;;;23.70;85.90;;;;;;4170380;28;19932;-58
2023/08/12 05:35:33;;;;;;;;;;;23.70;85.10;;;;;;4170232;28;20371;-57
2023/08/12 05:38:14;;;;;;;;;;;23.70;85.20;;;;;;4170186;28;19967;-57
2023/08/12 05:40:55;;;;;;;;;;;23.70;85.20;;;;;;4153971;28;19936;-57
2023/08/12 05:43:37;;;;;;;;;;;23.70;85.30;;;;;;4172825;28;19931;-57
2023/08/12 05:46:18;;;;;;;;;;;23.70;85.30;;;;;;4173453;28;19935;-57
2023/08/12 05:48:59;;;;;;;;;;;23.70;85.30;;;;;;4172212;28;20062;-58
2023/08/12 05:51:41;;;;;;;;;;;23.70;85.50;;;;;;4173180;28;20392;-57
2023/08/12 05:54:22;;;;;;;;;;;23.70;85.60;;;;;;4173485;28;19971;-57
2023/08/12 05:57:02;;;;;;;;;;;23.70;86.40;;;;;;4170245;28;19947;-54
2023/08/12 05:59:44;;;;;;;;;;;23.70;85.60;;;;;;4161324;28;19952;-57
2023/08/12 06:02:26;;;;;;;;;;;23.70;85.60;;;;;;4149727;28;19932;-56
2023/08/12 06:05:08;;;;;;;;;;;23.70;85.60;;;;;;4172880;28;20646;-57
2023/08/12 06:07:49;;;;;;;;;;;23.70;85.60;;;;;;4172653;28;20275;-58
2023/08/12 06:10:29;;;;;;;;;;;23.70;85.60;;;;;;4151960;28;20074;-58
2023/08/12 06:13:10;;;;;;;;;;;23.70;85.70;;;;;;4145273;28;20451;-57
2023/08/12 06:15:52;;;;;;;;;;;23.70;85.80;;;;;;4151370;28;19932;-58
2023/08/12 06:18:33;;;;;;;;;;;23.70;85.80;;;;;;4155338;28;19975;-57
2023/08/12 06:21:14;;;;;;;;;;;23.70;86.70;;;;;;4141566;28;20309;-58
2023/08/12 06:23:54;;;;;;;;;;;23.70;85.90;;;;;;4156017;28;19932;-58
2023/08/12 06:26:35;;;;;;;;;;;23.70;85.90;;;;;;4156324;28;19935;-57
2023/08/12 06:29:15;;;;;;;;;;;23.70;86.00;;;;;;4140460;28;19932;-57
2023/08/12 06:31:57;;;;;;;;;;;23.70;86.90;;;;;;4140025;28;19936;-57
2023/08/12 06:34:38;;;;;;;;;;;23.70;86.10;;;;;;4131587;28;19941;-57
2023/08/12 06:37:19;;;;;;;;;;;23.70;86.10;;;;;;4139814;28;20392;-57
2023/08/12 06:39:59;;;;;;;;;;;23.70;87.10;;;;;;4140017;28;19933;-57
2023/08/12 06:42:40;;;;;;;;;;;23.70;86.20;;;;;;4155189;28;19936;-57
2023/08/12 06:45:20;;;;;;;;;;;23.70;86.30;;;;;;4143630;28;19936;-57
2023/08/12 06:48:03;;;;;;;;;;;23.70;86.30;;;;;;4155510;28;19990;-58
2023/08/12 06:50:44;;;;;;;;;;;23.70;86.40;;;;;;4154038;28;19936;-57
2023/08/12 06:53:25;;;;;;;;;;;23.70;86.50;;;;;;4138577;28;19932;-57
2023/08/12 06:56:06;;;;;;;;;;;23.70;86.60;;;;;;4140014;28;19979;-57
2023/08/12 06:58:47;;;;;;;;;;;23.70;86.60;;;;;;4159872;28;19935;-57
2023/08/12 07:01:27;;;;;;;;;;;23.70;86.60;;;;;;4171159;28;20403;-57
2023/08/12 07:04:09;;;;;;;;;;;23.70;86.70;;;;;;4171372;28;20484;-57
2023/08/12 07:06:50;;;;;;;;;;;23.70;86.80;;;;;;4145094;28;19936;-57
2023/08/12 07:09:31;;;;;;;;;;;23.70;86.90;;;;;;4142724;28;20292;-57
2023/08/12 07:12:11;;;;;;;;;;;23.70;87.00;;;;;;4163965;28;19970;-57
2023/08/12 07:14:53;;;;;;;;;;;23.70;87.00;;;;;;4150472;28;20438;-57
2023/08/12 07:17:34;;;;;;;;;;;23.70;87.10;;;;;;4151243;28;19932;-57
2023/08/12 07:20:16;;;;;;;;;;;23.70;87.20;;;;;;4154878;28;20288;-59
2023/08/12 07:22:57;;;;;;;;;;;23.70;87.40;;;;;;4132128;28;19931;-57
2023/08/12 07:25:37;;;;;;;;;;;23.70;87.50;;;;;;4123140;28;19932;-57
2023/08/12 07:28:18;;;;;;;;;;;23.70;87.60;;;;;;4138717;28;19936;-57
2023/08/12 07:31:01;;;;;;;;;;;23.70;87.60;;;;;;4138917;28;19974;-57
2023/08/12 07:33:41;;;;;;;;;;;23.70;87.70;;;;;;4170463;28;20061;-57
2023/08/12 07:36:23;;;;;;;;;;;23.70;87.80;;;;;;4151922;28;19971;-59
2023/08/12 07:39:05;;;;;;;;;;;23.70;87.90;;;;;;4137258;28;19932;-55
2023/08/12 07:41:46;;;;;;;;;;;23.70;88.00;;;;;;4157751;28;19932;-57
2023/08/12 07:44:26;;;;;;;;;;;23.70;88.00;;;;;;4153109;28;20284;-57
2023/08/12 07:47:07;;;;;;;;;;;23.70;88.30;;;;;;4153191;28;20070;-57
2023/08/12 07:49:48;;;;;;;;;;;23.70;88.30;;;;;;4153415;28;19933;-57
2023/08/12 07:52:30;;;;;;;;;;;23.70;88.40;;;;;;4138686;28;19936;-57
2023/08/12 07:55:12;;;;;;;;;;;23.70;88.50;;;;;;4142984;28;20378;-57
2023/08/12 07:57:53;;;;;;;;;;;23.70;88.60;;;;;;4154936;28;19992;-57
2023/08/12 08:00:33;;;;;;;;;;;23.70;88.70;;;;;;4154664;28;20015;-57
2023/08/12 08:03:14;;;;;;;;;;;23.70;88.80;;;;;;4154392;28;19932;-57
2023/08/12 08:05:56;;;;;;;;;;;23.70;89.60;;;;;;4142020;28;20268;-57
2023/08/12 08:08:38;;;;;;;;;;;23.70;88.90;;;;;;4149625;28;19983;-57
2023/08/12 08:11:19;;;;;;;;;;;23.70;89.00;;;;;;4151241;28;20396;-57
2023/08/12 08:14:00;;;;;;;;;;;23.70;89.00;;;;;;4156701;28;20323;-57
2023/08/12 08:16:41;;;;;;;;;;;23.70;89.10;;;;;;4154618;28;19933;-57
2023/08/12 08:19:22;;;;;;;;;;;23.70;89.10;;;;;;4154141;28;19944;-56
2023/08/12 08:22:09;;;;;;;;;;;23.70;89.30;;;;;;4137362;28;20361;-57
2023/08/12 08:24:51;;;;;;;;;;;23.70;89.40;;;;;;4142257;28;20011;-58
2023/08/12 08:27:33;;;;;;;;;;;23.70;89.40;;;;;;4154437;28;20062;-58
2023/08/12 08:30:13;;;;;;;;;;;23.70;89.80;;;;;;4141467;28;20415;-59
2023/08/12 08:32:54;;;;;;;;;;;23.70;90.00;;;;;;4150068;28;19933;-57
2023/08/12 08:35:35;;;;;;;;;;;23.70;90.00;;;;;;4134300;28;20438;-57
2023/08/12 08:38:15;;;;;;;;;;;23.70;90.00;;;;;;4138464;28;19956;-57
2023/08/12 08:40:58;;;;;;;;;;;23.70;90.10;;;;;;4139896;28;20441;-57
2023/08/12 08:43:40;;;;;;;;;;;23.70;90.10;;;;;;4153763;28;19956;-57
2023/08/12 08:46:21;;;;;;;;;;;23.70;90.50;;;;;;4153611;28;20292;-57
2023/08/12 08:49:02;;;;;;;;;;;23.70;90.10;;;;;;4137976;28;20386;-57
2023/08/12 08:51:44;;;;;;;;;;;23.70;90.10;;;;;;4138183;28;19936;-57
2023/08/12 08:54:25;;;;;;;;;;;23.70;90.10;;;;;;4148155;28;19936;-57
2023/08/12 08:57:07;;;;;;;;;;;23.80;90.10;;;;;;4138205;28;20288;-57
2023/08/12 08:59:47;;;;;;;;;;;23.70;90.10;;;;;;4141932;28;20395;-59
2023/08/12 09:02:38;;;;;;;;;;;23.80;90.20;;;;;;4152261;28;19935;-56
2023/08/12 09:05:20;;;;;;;;;;;23.80;90.20;;;;;;4136910;28;20453;-56
2023/08/12 09:08:02;;;;;;;;;;;23.70;90.20;;;;;;4147835;28;19933;-57
2023/08/12 09:10:43;;;;;;;;;;;23.70;90.20;;;;;;4132843;28;19994;-57
2023/08/12 09:13:25;;;;;;;;;;;23.70;90.20;;;;;;4154590;28;20296;-57
2023/08/12 09:16:06;;;;;;;;;;;23.70;90.30;;;;;;4153677;28;19936;-57
2023/08/12 09:18:47;;;;;;;;;;;23.70;90.30;;;;;;4133896;28;19932;-52
2023/08/12 09:21:28;;;;;;;;;;;23.70;90.70;;;;;;4133398;28;20336;-52
2023/08/12 09:24:09;;;;;;;;;;;23.70;90.30;;;;;;4140222;28;19936;-53
2023/08/12 09:26:52;;;;;;;;;;;23.70;90.30;;;;;;4124364;28;20448;-53
2023/08/12 09:29:35;;;;;;;;;;;23.80;90.40;;;;;;4145296;28;19991;-53
2023/08/12 09:32:19;;;;;;;;;;;23.70;90.40;;;;;;4173863;28;20404;-53
2023/08/12 09:35:02;;;;;;;;;;;23.70;90.40;;;;;;4173626;28;20010;-54
2023/08/12 09:37:43;;;;;;;;;;;23.70;90.40;;;;;;4166478;28;19966;-53
2023/08/12 09:40:24;;;;;;;;;;;23.70;90.40;;;;;;4156427;28;20013;-53
2023/08/12 09:43:05;;;;;;;;;;;23.70;90.40;;;;;;4173288;28;19931;-50
2023/08/12 09:45:47;;;;;;;;;;;23.80;90.50;;;;;;4168641;28;19940;-51
2023/08/12 09:48:28;;;;;;;;;;;23.80;90.50;;;;;;4155050;28;20022;-51
2023/08/12 09:51:10;;;;;;;;;;;23.80;90.50;;;;;;4141244;28;19941;-53
2023/08/12 09:53:52;;;;;;;;;;;23.70;90.50;;;;;;4146440;28;20035;-52
2023/08/12 09:56:37;;;;;;;;;;;23.70;90.50;;;;;;4155988;28;20300;-50
2023/08/12 09:59:19;;;;;;;;;;;23.80;90.50;;;;;;4155419;28;19964;-45
2023/08/12 10:02:03;;;;;;;;;;;23.80;90.60;;;;;;4152351;28;19936;-52
2023/08/12 10:04:46;;;;;;;;;;;23.70;90.80;;;;;;4157341;28;20300;-52
2023/08/12 10:07:27;;;;;;;;;;;23.80;90.90;;;;;;4153466;28;20059;-53
2023/08/12 10:10:09;;;;;;;;;;;23.80;91.30;;;;;;4139954;28;19937;-52
2023/08/12 10:12:49;;;;;;;;;;;23.80;90.90;;;;;;4140166;28;20068;-53
2023/08/12 10:15:30;;;;;;;;;;;23.80;90.90;;;;;;4148564;28;19936;-52
2023/08/12 10:18:13;;;;;;;;;;;23.80;90.90;;;;;;4155305;28;19979;-51
2023/08/12 10:20:57;;;;;;;;;;;23.80;90.90;;;;;;4139887;28;20004;-54
2023/08/12 10:23:38;;;;;;;;;;;23.80;90.80;;;;;;4139600;28;19934;-51
2023/08/12 10:26:20;;;;;;;;;;;23.70;90.80;;;;;;4153542;28;19932;-53
2023/08/12 10:29:01;;;;;;;;;;;23.70;90.80;;;;;;4153827;28;19932;-53
2023/08/12 10:31:44;;;;;;;;;;;23.80;90.80;;;;;;4153072;28;20181;-51
2023/08/12 10:34:27;;;;;;;;;;;23.70;91.20;;;;;;4154542;28;19935;-54
2023/08/12 10:37:10;;;;;;;;;;;23.80;90.90;;;;;;4149813;28;19932;-54
2023/08/12 10:39:52;;;;;;;;;;;23.80;91.00;;;;;;4144978;28;19932;-55
2023/08/12 10:42:43;;;;;;;;;;;23.70;91.00;;;;;;4147493;28;19936;-53
2023/08/12 10:45:41;;;;;;;;;;;23.70;91.10;;;;;;4140336;28;19949;-53
2023/08/12 10:48:23;;;;;;;;;;;23.70;91.10;;;;;;4150121;28;20002;-52
2023/08/12 10:51:05;;;;;;;;;;;23.70;91.10;;;;;;4153315;28;19936;-54
2023/08/12 10:53:48;;;;;;;;;;;23.70;91.10;;;;;;4160010;28;19932;-55
2023/08/12 10:56:29;;;;;;;;;;;23.80;91.10;;;;;;4161154;28;20410;-52
2023/08/12 10:59:10;;;;;;;;;;;23.70;91.10;;;;;;4154984;28;19932;-54
2023/08/12 11:01:53;;;;;;;;;;;23.80;91.10;;;;;;4143494;28;19936;-55
2023/08/12 11:04:37;;;;;;;;;;;23.80;91.20;;;;;;4171450;28;20391;-55
2023/08/12 11:07:20;;;;;;;;;;;23.80;91.20;;;;;;4158604;28;20276;-55
2023/08/12 11:10:06;;;;;;;;;;;23.80;91.20;;;;;;4150464;28;19932;-52
2023/08/12 11:12:54;;;;;;;;;;;23.70;91.20;;;;;;4172241;28;20400;-52
2023/08/12 11:15:37;;;;;;;;;;;23.70;91.20;;;;;;4171338;28;19936;-51
2023/08/12 11:18:20;;;;;;;;;;;23.70;91.30;;;;;;4163639;28;19932;-52
2023/08/12 11:21:01;;;;;;;;;;;23.70;91.40;;;;;;4154191;28;20281;-55
2023/08/12 11:23:43;;;;;;;;;;;23.70;91.60;;;;;;4146553;28;19982;-56
2023/08/12 11:26:24;;;;;;;;;;;23.70;91.70;;;;;;4182566;28;19971;-54
2023/08/12 11:29:09;;;;;;;;;;;23.80;92.30;;;;;;4152277;28;19998;-52
2023/08/12 11:31:49;;;;;;;;;;;23.70;92.00;;;;;;4155037;28;20285;-50
2023/08/12 11:34:31;;;;;;;;;;;23.80;92.40;;;;;;4153459;28;20422;-50
2023/08/12 11:37:11;;;;;;;;;;;23.80;91.90;;;;;;4154996;28;20354;-53
2023/08/12 11:39:53;;;;;;;;;;;23.80;91.90;;;;;;4138351;28;19993;-55
2023/08/12 11:42:34;;;;;;;;;;;23.80;91.90;;;;;;4138327;28;19979;-47
2023/08/12 11:45:16;;;;;;;;;;;23.80;92.00;;;;;;4139164;28;20068;-53
2023/08/12 11:47:57;;;;;;;;;;;23.80;91.90;;;;;;4141167;28;19977;-50
2023/08/12 11:50:38;;;;;;;;;;;23.80;92.00;;;;;;4171624;28;20014;-52
2023/08/12 11:53:19;;;;;;;;;;;23.80;92.00;;;;;;4171566;28;19967;-57
2023/08/12 11:56:01;;;;;;;;;;;23.80;92.00;;;;;;4171143;28;19951;-55
2023/08/12 11:58:42;;;;;;;;;;;23.90;92.00;;;;;;4148373;28;20398;-56
2023/08/12 12:01:32;;;;;;;;;;;23.90;92.00;;;;;;4143556;28;20063;-52
2023/08/12 12:04:14;;;;;;;;;;;23.90;92.00;;;;;;4152584;28;19932;-49
2023/08/12 12:06:54;;;;;;;;;;;24.00;92.00;;;;;;4153055;28;19932;-50
2023/08/12 12:09:35;;;;;;;;;;;23.90;91.90;;;;;;4124441;28;20023;-50
2023/08/12 12:12:17;;;;;;;;;;;23.90;91.90;;;;;;4137068;28;19933;-52
2023/08/12 12:14:58;;;;;;;;;;;24.00;92.00;;;;;;4138026;28;20108;-51
2023/08/12 12:17:39;;;;;;;;;;;24.00;91.90;;;;;;4137727;28;19948;-51
2023/08/12 12:20:21;;;;;;;;;;;24.00;91.90;;;;;;4171533;28;19936;-53
2023/08/12 12:23:06;;;;;;;;;;;24.00;91.90;;;;;;4170650;28;19974;-49
2023/08/12 12:25:47;;;;;;;;;;;24.00;91.80;;;;;;4170372;28;19931;-48
2023/08/12 12:28:29;;;;;;;;;;;24.00;91.80;;;;;;4160731;28;19935;-54
2023/08/12 12:31:10;;;;;;;;;;;24.00;91.80;;;;;;4153213;28;19971;-48
2023/08/12 12:33:51;;;;;;;;;;;24.10;91.70;;;;;;4152787;28;19932;-48
2023/08/12 12:36:32;;;;;;;;;;;24.00;91.70;;;;;;4151117;28;19932;-48
2023/08/12 12:39:24;;;;;;;;;;;24.00;91.70;;;;;;4141929;28;19984;-47
2023/08/12 12:42:05;;;;;;;;;;;24.00;91.60;;;;;;4170779;28;20402;-49
2023/08/12 12:44:47;;;;;;;;;;;24.00;91.60;;;;;;4170884;28;20033;-49
2023/08/12 12:47:28;;;;;;;;;;;24.00;91.50;;;;;;4156424;28;20022;-49
2023/08/12 12:50:09;;;;;;;;;;;24.00;91.50;;;;;;4152847;28;19933;-50
2023/08/12 12:52:50;;;;;;;;;;;23.90;91.40;;;;;;4155245;28;19974;-53
2023/08/12 12:55:30;;;;;;;;;;;23.90;91.40;;;;;;4141054;28;19932;-49
2023/08/12 12:58:11;;;;;;;;;;;23.90;91.30;;;;;;4160812;28;19935;-50
2023/08/12 13:00:53;;;;;;;;;;;23.90;91.20;;;;;;4156608;28;19932;-51
2023/08/12 13:03:34;;;;;;;;;;;23.80;91.10;;;;;;4128869;28;19937;-53
2023/08/12 13:06:17;;;;;;;;;;;23.70;91.00;;;;;;4139866;28;19934;-49
2023/08/12 13:08:58;;;;;;;;;;;23.70;91.00;;;;;;4142434;28;20331;-49
2023/08/12 13:11:39;;;;;;;;;;;23.70;91.10;;;;;;4155790;28;19936;-50
2023/08/12 13:14:20;;;;;;;;;;;23.70;91.00;;;;;;4156904;28;19941;-49
2023/08/12 13:17:03;;;;;;;;;;;23.70;90.90;;;;;;4170206;28;19936;-49
2023/08/12 13:19:44;;;;;;;;;;;23.70;90.90;;;;;;4173458;28;19982;-48
2023/08/12 13:22:24;;;;;;;;;;;23.70;90.90;;;;;;4173164;28;19932;-49
2023/08/12 13:25:05;;;;;;;;;;;23.70;90.80;;;;;;4155795;28;19932;-48
2023/08/12 13:27:46;;;;;;;;;;;23.70;90.80;;;;;;4165331;28;19940;-49
2023/08/12 13:30:27;;;;;;;;;;;23.70;90.80;;;;;;4153081;28;19952;-51
2023/08/12 13:33:09;;;;;;;;;;;23.70;90.80;;;;;;4155495;28;19943;-50
2023/08/12 13:35:50;;;;;;;;;;;23.70;90.70;;;;;;4156022;28;20427;-52
2023/08/12 13:38:31;;;;;;;;;;;23.70;90.70;;;;;;4155801;28;19978;-55
2023/08/12 13:41:11;;;;;;;;;;;23.70;90.60;;;;;;4153313;28;19932;-52
2023/08/12 13:43:52;;;;;;;;;;;23.70;90.60;;;;;;4149262;28;19937;-52
2023/08/12 13:46:33;;;;;;;;;;;23.80;90.60;;;;;;4155524;28;20607;-48
2023/08/12 13:49:16;;;;;;;;;;;23.80;90.60;;;;;;4139458;28;19933;-51
2023/08/12 13:51:59;;;;;;;;;;;23.80;90.50;;;;;;4139875;28;19932;-51
2023/08/12 13:54:39;;;;;;;;;;;23.80;90.40;;;;;;4153002;28;20392;-50
2023/08/12 13:57:20;;;;;;;;;;;23.90;90.40;;;;;;4155829;28;19936;-48
2023/08/12 14:00:01;;;;;;;;;;;23.90;90.30;;;;;;4156456;28;19991;-51
2023/08/12 14:02:51;;;;;;;;;;;23.90;90.20;;;;;;4153724;28;19932;-52
2023/08/12 14:05:34;;;;;;;;;;;23.90;90.20;;;;;;4172500;28;20291;-49
2023/08/12 14:08:15;;;;;;;;;;;23.90;90.10;;;;;;4152643;28;20034;-52
2023/08/12 14:10:55;;;;;;;;;;;23.90;90.00;;;;;;4156313;28;20014;-53
2023/08/12 14:13:36;;;;;;;;;;;23.90;89.90;;;;;;4140421;28;19936;-52
2023/08/12 14:16:16;;;;;;;;;;;24.00;89.60;;;;;;4140282;28;19932;-53
2023/08/12 14:18:57;;;;;;;;;;;24.00;89.60;;;;;;4154950;28;20441;-51
2023/08/12 14:21:39;;;;;;;;;;;24.00;89.50;;;;;;4154957;28;19998;-53
2023/08/12 14:24:20;;;;;;;;;;;24.00;89.30;;;;;;4142956;28;20285;-52
2023/08/12 14:27:00;;;;;;;;;;;24.00;89.20;;;;;;4126351;28;19948;-52
2023/08/12 14:29:42;;;;;;;;;;;24.00;89.00;;;;;;4139432;28;20018;-50
2023/08/12 14:32:25;;;;;;;;;;;24.10;89.00;;;;;;4152794;28;19963;-53
2023/08/12 14:35:08;;;;;;;;;;;24.10;88.90;;;;;;4155451;28;20063;-51
2023/08/12 14:37:50;;;;;;;;;;;24.10;89.60;;;;;;4158491;28;19940;-52
2023/08/12 14:40:31;;;;;;;;;;;24.10;88.70;;;;;;4150778;28;19936;-51
2023/08/12 14:43:13;;;;;;;;;;;24.20;88.60;;;;;;4133980;28;20064;-50
2023/08/12 14:45:55;;;;;;;;;;;24.20;88.50;;;;;;4154935;28;19936;-50
2023/08/12 14:48:36;;;;;;;;;;;24.20;88.40;;;;;;4152964;28;20134;-49
2023/08/12 14:51:16;;;;;;;;;;;24.30;88.10;;;;;;4149863;28;19932;-51
2023/08/12 14:53:59;;;;;;;;;;;24.30;88.00;;;;;;4155255;28;19936;-52
2023/08/12 14:56:39;;;;;;;;;;;24.30;87.80;;;;;;4154486;28;20029;-50
2023/08/12 14:59:20;;;;;;;;;;;24.30;87.50;;;;;;4155440;28;19935;-50
2023/08/12 15:02:01;;;;;;;;;;;24.30;87.20;;;;;;4126989;28;19932;-49
2023/08/12 15:04:42;;;;;;;;;;;24.30;86.50;;;;;;4123955;28;20293;-53
2023/08/12 15:07:22;;;;;;;;;;;24.30;86.30;;;;;;4146782;28;19932;-50
2023/08/12 15:10:04;;;;;;;;;;;24.30;86.00;;;;;;4153602;28;19987;-53
2023/08/12 15:12:46;;;;;;;;;;;24.30;85.70;;;;;;4155235;28;20339;-54
2023/08/12 15:15:26;;;;;;;;;;;24.40;84.80;;;;;;4153732;28;19932;-52
2023/08/12 15:18:07;;;;;;;;;;;24.40;84.70;;;;;;4155457;28;19936;-50
2023/08/12 15:20:48;;;;;;;;;;;24.40;84.50;;;;;;4154537;28;19936;-53
2023/08/12 15:23:28;;;;;;;;;;;24.40;84.40;;;;;;4141893;28;20288;-52
2023/08/12 15:26:11;;;;;;;;;;;24.40;84.30;;;;;;4154802;28;20376;-49
2023/08/12 15:28:52;;;;;;;;;;;24.40;83.90;;;;;;4149721;28;19932;-49
2023/08/12 15:31:33;;;;;;;;;;;24.40;83.50;;;;;;4155025;28;19932;-50
2023/08/12 15:34:13;;;;;;;;;;;24.40;82.90;;;;;;4146829;28;19953;-50
2023/08/12 15:36:54;;;;;;;;;;;24.50;82.20;;;;;;4155033;28;19933;-48
2023/08/12 15:39:35;;;;;;;;;;;24.50;81.80;;;;;;4163457;28;20051;-47